sensor_id;sensor_type;location;lat;lon;timestamp;pressure;altitude;pressure_sealevel;temperature;humidity
77939;BME280;67136;47.546;21.630;2023-07-28T00:00:06;99921.62;;;15.40;73.35
77939;BME280;67136;47.546;21.630;2023-07-28T00:03:11;99917.84;;;15.42;73.34
77939;BME280;67136;47.546;21.630;2023-07-28T00:06:13;99920.62;;;15.41;73.82
77939;BME280;67136;47.546;21.630;2023-07-28T00:09:16;99919.63;;;15.34;74.20
77939;BME280;67136;47.546;21.630;2023-07-28T00:12:19;99921.59;;;15.32;73.91
77939;BME280;67136;47.546;21.630;2023-07-28T00:15:22;99917.47;;;15.29;73.95
77939;BME280;67136;47.546;21.630;2023-07-28T00:18:25;99922.25;;;15.26;73.96
77939;BME280;67136;47.546;21.630;2023-07-28T00:21:27;99920.78;;;15.23;73.89
77939;BME280;67136;47.546;21.630;2023-07-28T00:24:30;99923.56;;;15.30;73.83
77939;BME280;67136;47.546;21.630;2023-07-28T00:27:33;99934.28;;;15.28;73.97
77939;BME280;67136;47.546;21.630;2023-07-28T00:30:35;99927.50;;;15.26;73.80
77939;BME280;67136;47.546;21.630;2023-07-28T00:33:38;99918.28;;;15.30;73.78
77939;BME280;67136;47.546;21.630;2023-07-28T00:36:40;99913.69;;;15.24;74.35
77939;BME280;67136;47.546;21.630;2023-07-28T00:39:43;99915.69;;;15.22;74.04
77939;BME280;67136;47.546;21.630;2023-07-28T00:42:46;99923.25;;;15.17;74.67
77939;BME280;67136;47.546;21.630;2023-07-28T00:45:49;99915.34;;;15.09;76.37
77939;BME280;67136;47.546;21.630;2023-07-28T00:48:52;99913.69;;;15.16;75.20
77939;BME280;67136;47.546;21.630;2023-07-28T00:51:56;99916.81;;;15.03;75.48
77939;BME280;67136;47.546;21.630;2023-07-28T00:55:00;99917.47;;;14.97;76.10
77939;BME280;67136;47.546;21.630;2023-07-28T00:58:02;99912.34;;;14.95;76.73
77939;BME280;67136;47.546;21.630;2023-07-28T01:01:05;99913.34;;;14.94;76.60
77939;BME280;67136;47.546;21.630;2023-07-28T01:04:08;99918.63;;;14.94;76.19
77939;BME280;67136;47.546;21.630;2023-07-28T01:07:16;99916.50;;;14.90;77.17
77939;BME280;67136;47.546;21.630;2023-07-28T01:10:26;99910.72;;;14.94;76.60
77939;BME280;67136;47.546;21.630;2023-07-28T01:13:31;99911.69;;;14.93;76.58
77939;BME280;67136;47.546;21.630;2023-07-28T01:16:34;99908.41;;;14.91;77.28
77939;BME280;67136;47.546;21.630;2023-07-28T01:19:37;99909.56;;;14.89;77.50
77939;BME280;67136;47.546;21.630;2023-07-28T01:22:48;99911.84;;;14.84;77.95
77939;BME280;67136;47.546;21.630;2023-07-28T01:29:09;99906.25;;;14.71;77.76
77939;BME280;67136;47.546;21.630;2023-07-28T01:32:14;99912.31;;;14.63;77.89
77939;BME280;67136;47.546;21.630;2023-07-28T01:35:16;99908.38;;;14.59;78.33
77939;BME280;67136;47.546;21.630;2023-07-28T01:38:19;99911.00;;;14.59;79.24
77939;BME280;67136;47.546;21.630;2023-07-28T01:41:22;99904.06;;;14.58;79.15
77939;BME280;67136;47.546;21.630;2023-07-28T01:44:25;99898.12;;;14.48;79.09
77939;BME280;67136;47.546;21.630;2023-07-28T01:47:27;99899.12;;;14.47;79.24
77939;BME280;67136;47.546;21.630;2023-07-28T01:50:31;99894.81;;;14.38;79.75
77939;BME280;67136;47.546;21.630;2023-07-28T01:53:34;99899.09;;;14.31;79.99
77939;BME280;67136;47.546;21.630;2023-07-28T01:56:37;99894.47;;;14.25;80.27
77939;BME280;67136;47.546;21.630;2023-07-28T01:59:39;99893.13;;;14.21;80.84
77939;BME280;67136;47.546;21.630;2023-07-28T02:02:42;99888.97;;;14.19;81.14
77939;BME280;67136;47.546;21.630;2023-07-28T02:05:46;99891.09;;;14.15;80.92
77939;BME280;67136;47.546;21.630;2023-07-28T02:08:49;99897.03;;;14.17;80.78
77939;BME280;67136;47.546;21.630;2023-07-28T02:11:52;99897.16;;;14.08;81.09
77939;BME280;67136;47.546;21.630;2023-07-28T02:14:55;99894.87;;;14.13;81.45
77939;BME280;67136;47.546;21.630;2023-07-28T02:17:58;99898.66;;;14.18;81.41
77939;BME280;67136;47.546;21.630;2023-07-28T02:21:01;99907.94;;;14.30;81.32
77939;BME280;67136;47.546;21.630;2023-07-28T02:24:04;99912.25;;;14.31;81.02
77939;BME280;67136;47.546;21.630;2023-07-28T02:27:06;99913.56;;;14.35;80.51
77939;BME280;67136;47.546;21.630;2023-07-28T02:30:09;99913.22;;;14.30;80.22
77939;BME280;67136;47.546;21.630;2023-07-28T02:33:12;99908.94;;;14.29;80.27
77939;BME280;67136;47.546;21.630;2023-07-28T02:36:15;99906.62;;;14.26;80.55
77939;BME280;67136;47.546;21.630;2023-07-28T02:39:18;99903.31;;;14.24;80.28
77939;BME280;67136;47.546;21.630;2023-07-28T02:42:21;99902.47;;;14.24;80.61
77939;BME280;67136;47.546;21.630;2023-07-28T02:45:23;99906.09;;;14.23;80.57
77939;BME280;67136;47.546;21.630;2023-07-28T02:48:27;99912.16;;;14.23;80.78
77939;BME280;67136;47.546;21.630;2023-07-28T02:51:30;99908.56;;;14.24;80.85
77939;BME280;67136;47.546;21.630;2023-07-28T02:54:35;99907.91;;;14.22;81.12
77939;BME280;67136;47.546;21.630;2023-07-28T02:57:37;99897.03;;;14.17;81.02
77939;BME280;67136;47.546;21.630;2023-07-28T03:00:41;99896.53;;;14.14;80.95
77939;BME280;67136;47.546;21.630;2023-07-28T03:03:44;99900.59;;;14.08;81.24
77939;BME280;67136;47.546;21.630;2023-07-28T03:06:48;99917.69;;;14.04;81.67
77939;BME280;67136;47.546;21.630;2023-07-28T03:09:51;99916.34;;;14.00;81.75
77939;BME280;67136;47.546;21.630;2023-07-28T03:12:55;99923.25;;;14.01;81.56
77939;BME280;67136;47.546;21.630;2023-07-28T03:15:57;99924.06;;;14.02;81.89
77939;BME280;67136;47.546;21.630;2023-07-28T03:19:00;99923.25;;;14.01;82.25
77939;BME280;67136;47.546;21.630;2023-07-28T03:22:03;99927.19;;;13.97;82.64
77939;BME280;67136;47.546;21.630;2023-07-28T03:25:06;99923.56;;;13.98;82.55
77939;BME280;67136;47.546;21.630;2023-07-28T03:28:08;99924.72;;;13.96;82.73
77939;BME280;67136;47.546;21.630;2023-07-28T03:31:11;99922.53;;;13.91;83.13
77939;BME280;67136;47.546;21.630;2023-07-28T03:34:14;99931.41;;;13.90;82.78
77939;BME280;67136;47.546;21.630;2023-07-28T03:37:17;99935.31;;;13.86;83.59
77939;BME280;67136;47.546;21.630;2023-07-28T03:40:20;99935.03;;;13.89;83.51
77939;BME280;67136;47.546;21.630;2023-07-28T03:43:23;99934.41;;;13.95;83.41
77939;BME280;67136;47.546;21.630;2023-07-28T03:46:26;99940.34;;;14.05;82.50
77939;BME280;67136;47.546;21.630;2023-07-28T03:49:32;99941.53;;;14.11;82.60
77939;BME280;67136;47.546;21.630;2023-07-28T03:52:35;99944.03;;;14.20;83.33
77939;BME280;67136;47.546;21.630;2023-07-28T03:55:37;99942.25;;;14.21;82.47
77939;BME280;67136;47.546;21.630;2023-07-28T03:58:40;99949.13;;;14.22;82.33
77939;BME280;67136;47.546;21.630;2023-07-28T04:01:43;99956.22;;;14.21;82.60
77939;BME280;67136;47.546;21.630;2023-07-28T04:04:46;99954.41;;;14.22;82.74
77939;BME280;67136;47.546;21.630;2023-07-28T04:07:49;99957.03;;;14.22;82.45
77939;BME280;67136;47.546;21.630;2023-07-28T04:10:52;99953.00;;;14.27;81.98
77939;BME280;67136;47.546;21.630;2023-07-28T04:13:54;99952.66;;;14.30;82.11
77939;BME280;67136;47.546;21.630;2023-07-28T04:16:57;99954.03;;;14.42;81.69
77939;BME280;67136;47.546;21.630;2023-07-28T04:19:59;99951.41;;;14.50;81.64
77939;BME280;67136;47.546;21.630;2023-07-28T04:23:02;99941.03;;;14.41;81.92
77939;BME280;67136;47.546;21.630;2023-07-28T04:26:06;99938.25;;;14.42;81.84
77939;BME280;67136;47.546;21.630;2023-07-28T04:29:10;99941.88;;;14.41;81.99
77939;BME280;67136;47.546;21.630;2023-07-28T04:32:12;99938.59;;;14.55;81.61
77939;BME280;67136;47.546;21.630;2023-07-28T04:35:15;99936.66;;;14.57;81.24
77939;BME280;67136;47.546;21.630;2023-07-28T04:38:19;99934.34;;;14.62;80.88
77939;BME280;67136;47.546;21.630;2023-07-28T04:41:22;99940.97;;;14.66;80.89
77939;BME280;67136;47.546;21.630;2023-07-28T04:44:25;99935.34;;;14.61;80.98
77939;BME280;67136;47.546;21.630;2023-07-28T04:47:32;99937.00;;;14.70;80.64
77939;BME280;67136;47.546;21.630;2023-07-28T04:50:34;99936.38;;;14.76;80.69
77939;BME280;67136;47.546;21.630;2023-07-28T04:53:39;99944.91;;;14.78;80.82
77939;BME280;67136;47.546;21.630;2023-07-28T04:56:41;99942.94;;;14.72;80.96
77939;BME280;67136;47.546;21.630;2023-07-28T04:59:44;99946.22;;;14.74;81.10
77939;BME280;67136;47.546;21.630;2023-07-28T05:02:47;99948.53;;;14.77;81.10
77939;BME280;67136;47.546;21.630;2023-07-28T05:05:50;99947.19;;;14.73;81.28
77939;BME280;67136;47.546;21.630;2023-07-28T05:08:52;99952.97;;;14.77;80.91
77939;BME280;67136;47.546;21.630;2023-07-28T05:11:55;99943.78;;;14.81;81.04
77939;BME280;67136;47.546;21.630;2023-07-28T05:14:58;99949.06;;;14.97;80.60
77939;BME280;67136;47.546;21.630;2023-07-28T05:18:01;99946.94;;;15.25;79.74
77939;BME280;67136;47.546;21.630;2023-07-28T05:21:06;99936.09;;;15.52;78.43
77939;BME280;67136;47.546;21.630;2023-07-28T05:24:09;99936.72;;;15.70;77.34
77939;BME280;67136;47.546;21.630;2023-07-28T05:27:12;99918.66;;;16.05;76.18
77939;BME280;67136;47.546;21.630;2023-07-28T05:30:16;99920.09;;;16.24;75.27
77939;BME280;67136;47.546;21.630;2023-07-28T05:33:19;99929.94;;;16.30;74.68
77939;BME280;67136;47.546;21.630;2023-07-28T05:36:23;99917.00;;;16.43;74.01
77939;BME280;67136;47.546;21.630;2023-07-28T05:39:26;99923.28;;;16.50;73.80
77939;BME280;67136;47.546;21.630;2023-07-28T05:42:29;99920.22;;;16.69;73.58
77939;BME280;67136;47.546;21.630;2023-07-28T05:45:31;99919.00;;;16.80;73.24
77939;BME280;67136;47.546;21.630;2023-07-28T05:48:34;99918.03;;;16.95;72.17
77939;BME280;67136;47.546;21.630;2023-07-28T05:51:37;99916.91;;;17.35;71.61
77939;BME280;67136;47.546;21.630;2023-07-28T05:54:40;99918.16;;;17.39;71.14
77939;BME280;67136;47.546;21.630;2023-07-28T05:57:43;99915.09;;;18.02;69.14
77939;BME280;67136;47.546;21.630;2023-07-28T06:00:46;99919.72;;;18.43;67.81
77939;BME280;67136;47.546;21.630;2023-07-28T06:03:51;99929.75;;;19.26;65.19
77939;BME280;67136;47.546;21.630;2023-07-28T06:06:54;99922.34;;;19.98;62.63
77939;BME280;67136;47.546;21.630;2023-07-28T06:09:57;99928.91;;;20.02;60.89
77939;BME280;67136;47.546;21.630;2023-07-28T06:13:00;99924.22;;;20.38;60.16
77939;BME280;67136;47.546;21.630;2023-07-28T06:16:04;99943.50;;;19.85;60.65
77939;BME280;67136;47.546;21.630;2023-07-28T06:19:07;99947.06;;;20.32;58.96
77939;BME280;67136;47.546;21.630;2023-07-28T06:22:11;99943.69;;;19.83;60.62
77939;BME280;67136;47.546;21.630;2023-07-28T06:25:14;99938.88;;;20.27;60.18
77939;BME280;67136;47.546;21.630;2023-07-28T06:28:17;99950.16;;;19.46;61.29
77939;BME280;67136;47.546;21.630;2023-07-28T06:31:20;99936.59;;;20.18;59.60
77939;BME280;67136;47.546;21.630;2023-07-28T06:34:23;99940.81;;;20.12;59.77
77939;BME280;67136;47.546;21.630;2023-07-28T06:37:25;99927.44;;;20.93;57.39
77939;BME280;67136;47.546;21.630;2023-07-28T06:40:28;99926.97;;;20.70;57.91
77939;BME280;67136;47.546;21.630;2023-07-28T06:43:31;99918.13;;;20.50;59.04
77939;BME280;67136;47.546;21.630;2023-07-28T06:46:35;99910.06;;;20.84;56.93
77939;BME280;67136;47.546;21.630;2023-07-28T06:49:38;99923.19;;;20.99;57.51
77939;BME280;67136;47.546;21.630;2023-07-28T06:52:41;99930.50;;;20.84;57.51
77939;BME280;67136;47.546;21.630;2023-07-28T06:55:44;99924.44;;;21.16;56.70
77939;BME280;67136;47.546;21.630;2023-07-28T06:58:47;99931.31;;;20.84;57.09
77939;BME280;67136;47.546;21.630;2023-07-28T07:01:58;99932.87;;;20.53;57.84
77939;BME280;67136;47.546;21.630;2023-07-28T07:05:20;99943.38;;;20.27;58.84
77939;BME280;67136;47.546;21.630;2023-07-28T07:08:23;99959.31;;;20.87;57.01
77939;BME280;67136;47.546;21.630;2023-07-28T07:11:29;99957.88;;;20.71;56.81
77939;BME280;67136;47.546;21.630;2023-07-28T07:14:31;99952.09;;;21.35;54.91
77939;BME280;67136;47.546;21.630;2023-07-28T07:17:34;99957.81;;;21.25;54.38
77939;BME280;67136;47.546;21.630;2023-07-28T07:20:37;99957.97;;;21.17;55.38
77939;BME280;67136;47.546;21.630;2023-07-28T07:23:40;99961.66;;;21.03;55.84
77939;BME280;67136;47.546;21.630;2023-07-28T07:26:59;99973.34;;;21.22;55.88
77939;BME280;67136;47.546;21.630;2023-07-28T07:30:02;99969.00;;;21.01;56.10
77939;BME280;67136;47.546;21.630;2023-07-28T07:33:06;99966.44;;;20.80;56.94
77939;BME280;67136;47.546;21.630;2023-07-28T07:36:13;99964.41;;;20.82;56.32
77939;BME280;67136;47.546;21.630;2023-07-28T07:39:16;99965.31;;;21.02;55.43
77939;BME280;67136;47.546;21.630;2023-07-28T07:42:18;99962.50;;;21.23;54.80
77939;BME280;67136;47.546;21.630;2023-07-28T07:45:21;99971.91;;;21.32;54.89
77939;BME280;67136;47.546;21.630;2023-07-28T07:48:24;99970.72;;;21.41;54.55
77939;BME280;67136;47.546;21.630;2023-07-28T07:51:26;99971.97;;;21.78;53.71
77939;BME280;67136;47.546;21.630;2023-07-28T07:54:29;99960.63;;;22.79;51.22
77939;BME280;67136;47.546;21.630;2023-07-28T07:57:32;99970.84;;;23.75;48.97
77939;BME280;67136;47.546;21.630;2023-07-28T08:00:37;99963.22;;;24.39;47.08
77939;BME280;67136;47.546;21.630;2023-07-28T08:03:41;99977.00;;;23.51;48.71
77939;BME280;67136;47.546;21.630;2023-07-28T08:06:43;99973.84;;;22.98;48.97
77939;BME280;67136;47.546;21.630;2023-07-28T08:09:46;99972.75;;;23.68;47.03
77939;BME280;67136;47.546;21.630;2023-07-28T08:12:49;99977.00;;;24.00;45.51
77939;BME280;67136;47.546;21.630;2023-07-28T08:15:52;99964.09;;;23.48;46.88
77939;BME280;67136;47.546;21.630;2023-07-28T08:18:54;99992.53;;;23.85;46.10
77939;BME280;67136;47.546;21.630;2023-07-28T08:21:57;99977.13;;;23.38;47.43
77939;BME280;67136;47.546;21.630;2023-07-28T08:24:59;99970.56;;;23.83;46.44
77939;BME280;67136;47.546;21.630;2023-07-28T08:28:03;99965.00;;;23.04;47.23
77939;BME280;67136;47.546;21.630;2023-07-28T08:31:06;99957.28;;;24.19;45.40
77939;BME280;67136;47.546;21.630;2023-07-28T08:34:09;99944.03;;;24.79;44.13
77939;BME280;67136;47.546;21.630;2023-07-28T08:37:11;99943.25;;;24.42;44.88
77939;BME280;67136;47.546;21.630;2023-07-28T08:40:14;99934.81;;;24.56;45.48
77939;BME280;67136;47.546;21.630;2023-07-28T08:43:17;99925.50;;;25.83;42.22
77939;BME280;67136;47.546;21.630;2023-07-28T08:46:20;99923.41;;;26.08;40.14
77939;BME280;67136;47.546;21.630;2023-07-28T08:49:22;99907.97;;;24.70;42.01
77939;BME280;67136;47.546;21.630;2023-07-28T08:52:25;99930.06;;;24.77;41.94
77939;BME280;67136;47.546;21.630;2023-07-28T08:55:28;99938.81;;;24.36;41.71
77939;BME280;67136;47.546;21.630;2023-07-28T08:58:30;99931.31;;;24.08;42.28
77939;BME280;67136;47.546;21.630;2023-07-28T09:01:38;99928.56;;;25.22;40.01
77939;BME280;67136;47.546;21.630;2023-07-28T09:04:43;99956.72;;;24.65;41.25
77939;BME280;67136;47.546;21.630;2023-07-28T09:07:45;99929.34;;;24.70;42.07
77939;BME280;67136;47.546;21.630;2023-07-28T09:10:49;99929.34;;;24.70;41.50
77939;BME280;67136;47.546;21.630;2023-07-28T09:13:54;99939.87;;;23.92;43.33
77939;BME280;67136;47.546;21.630;2023-07-28T09:20:15;99913.78;;;27.03;38.70
77939;BME280;67136;47.546;21.630;2023-07-28T09:23:27;99927.25;;;27.36;37.16
77939;BME280;67136;47.546;21.630;2023-07-28T09:26:39;99921.34;;;26.49;38.29
77939;BME280;67136;47.546;21.630;2023-07-28T09:29:42;99899.56;;;28.71;35.02
77939;BME280;67136;47.546;21.630;2023-07-28T09:32:48;99922.22;;;28.11;34.85
77939;BME280;67136;47.546;21.630;2023-07-28T09:35:55;99908.91;;;29.54;32.80
77939;BME280;67136;47.546;21.630;2023-07-28T09:38:58;99926.09;;;27.81;35.06
77939;BME280;67136;47.546;21.630;2023-07-28T09:42:01;99904.72;;;29.04;33.23
77939;BME280;67136;47.546;21.630;2023-07-28T09:45:05;99905.47;;;29.58;32.50
77939;BME280;67136;47.546;21.630;2023-07-28T09:48:15;99901.50;;;30.12;31.91
77939;BME280;67136;47.546;21.630;2023-07-28T09:51:20;99901.84;;;27.60;35.12
77939;BME280;67136;47.546;21.630;2023-07-28T09:54:24;99911.59;;;28.42;34.28
77939;BME280;67136;47.546;21.630;2023-07-28T09:57:30;99895.69;;;27.97;35.58
77939;BME280;67136;47.546;21.630;2023-07-28T10:00:36;99903.13;;;27.74;35.74
77939;BME280;67136;47.546;21.630;2023-07-28T10:03:39;99889.66;;;27.36;36.80
77939;BME280;67136;47.546;21.630;2023-07-28T10:06:43;99883.75;;;26.21;37.23
77939;BME280;67136;47.546;21.630;2023-07-28T10:09:46;99884.16;;;25.90;37.80
77939;BME280;67136;47.546;21.630;2023-07-28T10:12:50;99875.56;;;25.65;38.87
77939;BME280;67136;47.546;21.630;2023-07-28T10:15:53;99873.16;;;25.11;39.86
77939;BME280;67136;47.546;21.630;2023-07-28T10:18:55;99876.16;;;24.91;39.32
77939;BME280;67136;47.546;21.630;2023-07-28T10:22:00;99876.38;;;26.28;37.70
77939;BME280;67136;47.546;21.630;2023-07-28T10:25:03;99882.13;;;27.71;35.64
77939;BME280;67136;47.546;21.630;2023-07-28T10:28:34;99868.41;;;28.80;33.28
77939;BME280;67136;47.546;21.630;2023-07-28T10:31:53;99860.88;;;30.44;30.38
77939;BME280;67136;47.546;21.630;2023-07-28T10:35:01;99864.22;;;31.21;29.44
77939;BME280;67136;47.546;21.630;2023-07-28T10:38:33;99851.50;;;31.22;29.60
77939;BME280;67136;47.546;21.630;2023-07-28T10:41:37;99858.72;;;28.09;34.40
77939;BME280;67136;47.546;21.630;2023-07-28T10:44:40;99856.34;;;29.51;32.63
77939;BME280;67136;47.546;21.630;2023-07-28T10:47:43;99865.06;;;28.68;32.38
77939;BME280;67136;47.546;21.630;2023-07-28T10:50:46;99844.72;;;30.54;29.62
77939;BME280;67136;47.546;21.630;2023-07-28T10:53:54;99848.66;;;28.96;32.52
77939;BME280;67136;47.546;21.630;2023-07-28T10:57:01;99855.63;;;29.24;32.40
77939;BME280;67136;47.546;21.630;2023-07-28T11:00:05;99844.97;;;29.07;32.81
77939;BME280;67136;47.546;21.630;2023-07-28T11:03:10;99840.84;;;30.25;30.57
77939;BME280;67136;47.546;21.630;2023-07-28T11:06:13;99837.78;;;30.01;31.06
77939;BME280;67136;47.546;21.630;2023-07-28T11:09:17;99837.16;;;31.62;28.81
77939;BME280;67136;47.546;21.630;2023-07-28T11:12:21;99826.22;;;32.55;27.81
77939;BME280;67136;47.546;21.630;2023-07-28T11:15:24;99831.06;;;32.97;26.55
77939;BME280;67136;47.546;21.630;2023-07-28T11:18:27;99824.88;;;31.99;27.49
77939;BME280;67136;47.546;21.630;2023-07-28T11:21:29;99819.38;;;32.63;26.23
77939;BME280;67136;47.546;21.630;2023-07-28T11:24:33;99818.91;;;32.07;27.33
77939;BME280;67136;47.546;21.630;2023-07-28T11:27:37;99816.19;;;32.07;27.35
77939;BME280;67136;47.546;21.630;2023-07-28T11:30:40;99812.41;;;33.24;26.04
77939;BME280;67136;47.546;21.630;2023-07-28T11:33:44;99808.44;;;32.39;26.84
77939;BME280;67136;47.546;21.630;2023-07-28T11:36:47;99808.72;;;34.84;24.41
77939;BME280;67136;47.546;21.630;2023-07-28T11:39:50;99791.47;;;33.01;26.52
77939;BME280;67136;47.546;21.630;2023-07-28T11:42:55;99810.63;;;35.61;23.35
77939;BME280;67136;47.546;21.630;2023-07-28T11:45:58;99791.94;;;33.84;24.90
77939;BME280;67136;47.546;21.630;2023-07-28T11:49:26;99789.06;;;34.18;24.60
77939;BME280;67136;47.546;21.630;2023-07-28T11:52:34;99797.72;;;31.25;27.41
77939;BME280;67136;47.546;21.630;2023-07-28T11:55:40;99787.50;;;31.02;27.86
77939;BME280;67136;47.546;21.630;2023-07-28T11:58:43;99773.09;;;32.21;26.25
77939;BME280;67136;47.546;21.630;2023-07-28T12:05:11;99780.50;;;31.01;27.34
77939;BME280;67136;47.546;21.630;2023-07-28T12:08:14;99783.41;;;31.30;27.28
77939;BME280;67136;47.546;21.630;2023-07-28T12:11:17;99773.44;;;31.05;27.72
77939;BME280;67136;47.546;21.630;2023-07-28T12:14:34;99781.69;;;30.08;28.94
77939;BME280;67136;47.546;21.630;2023-07-28T12:17:40;99772.91;;;30.83;27.96
77939;BME280;67136;47.546;21.630;2023-07-28T12:20:47;99789.03;;;31.64;27.11
77939;BME280;67136;47.546;21.630;2023-07-28T12:23:50;99787.94;;;31.59;27.16
77939;BME280;67136;47.546;21.630;2023-07-28T12:26:56;99781.94;;;31.73;26.95
77939;BME280;67136;47.546;21.630;2023-07-28T12:30:01;99776.69;;;33.17;25.07
77939;BME280;67136;47.546;21.630;2023-07-28T12:33:06;99776.50;;;31.88;26.36
77939;BME280;67136;47.546;21.630;2023-07-28T12:36:22;99754.81;;;31.98;26.39
77939;BME280;67136;47.546;21.630;2023-07-28T12:39:44;99754.41;;;33.20;24.34
77939;BME280;67136;47.546;21.630;2023-07-28T12:42:50;99762.09;;;31.33;27.09
77939;BME280;67136;47.546;21.630;2023-07-28T12:45:55;99756.72;;;31.97;26.51
77939;BME280;67136;47.546;21.630;2023-07-28T12:49:01;99761.56;;;31.06;27.65
77939;BME280;67136;47.546;21.630;2023-07-28T12:52:05;99755.81;;;31.53;26.80
77939;BME280;67136;47.546;21.630;2023-07-28T12:55:21;99749.69;;;32.35;25.73
77939;BME280;67136;47.546;21.630;2023-07-28T12:58:23;99735.19;;;33.40;24.66
77939;BME280;67136;47.546;21.630;2023-07-28T13:01:29;99743.59;;;31.55;27.02
77939;BME280;67136;47.546;21.630;2023-07-28T13:04:32;99748.63;;;32.41;26.60
77939;BME280;67136;47.546;21.630;2023-07-28T13:07:35;99731.59;;;30.42;29.02
77939;BME280;67136;47.546;21.630;2023-07-28T13:10:40;99723.91;;;29.27;30.55
77939;BME280;67136;47.546;21.630;2023-07-28T13:13:46;99733.19;;;29.47;30.58
77939;BME280;67136;47.546;21.630;2023-07-28T13:16:48;99729.06;;;29.96;29.50
77939;BME280;67136;47.546;21.630;2023-07-28T13:19:51;99727.19;;;30.11;29.72
77939;BME280;67136;47.546;21.630;2023-07-28T13:22:54;99708.03;;;30.03;29.97
77939;BME280;67136;47.546;21.630;2023-07-28T13:25:57;99724.75;;;30.00;30.28
77939;BME280;67136;47.546;21.630;2023-07-28T13:28:59;99712.47;;;29.62;30.61
77939;BME280;67136;47.546;21.630;2023-07-28T13:32:15;99723.44;;;30.12;30.09
77939;BME280;67136;47.546;21.630;2023-07-28T13:35:18;99718.53;;;31.45;27.92
77939;BME280;67136;47.546;21.630;2023-07-28T13:38:21;99709.47;;;33.43;25.78
77939;BME280;67136;47.546;21.630;2023-07-28T13:41:23;99709.19;;;33.39;25.82
77939;BME280;67136;47.546;21.630;2023-07-28T13:44:26;99709.91;;;33.26;26.07
77939;BME280;67136;47.546;21.630;2023-07-28T13:47:31;99707.47;;;32.39;26.95
77939;BME280;67136;47.546;21.630;2023-07-28T13:50:34;99710.47;;;32.32;26.59
77939;BME280;67136;47.546;21.630;2023-07-28T13:53:39;99701.16;;;32.77;25.85
77939;BME280;67136;47.546;21.630;2023-07-28T13:56:42;99697.38;;;31.57;27.14
77939;BME280;67136;47.546;21.630;2023-07-28T13:59:48;99692.38;;;31.79;27.27
77939;BME280;67136;47.546;21.630;2023-07-28T14:02:51;99705.28;;;32.02;27.11
77939;BME280;67136;47.546;21.630;2023-07-28T14:05:54;99705.88;;;31.89;27.35
77939;BME280;67136;47.546;21.630;2023-07-28T14:08:56;99696.00;;;32.81;25.84
77939;BME280;67136;47.546;21.630;2023-07-28T14:11:59;99697.19;;;32.98;25.87
77939;BME280;67136;47.546;21.630;2023-07-28T14:15:03;99689.69;;;32.23;26.40
77939;BME280;67136;47.546;21.630;2023-07-28T14:18:06;99693.84;;;32.49;26.59
77939;BME280;67136;47.546;21.630;2023-07-28T14:21:08;99688.31;;;31.18;27.68
77939;BME280;67136;47.546;21.630;2023-07-28T14:24:11;99680.59;;;30.46;29.12
77939;BME280;67136;47.546;21.630;2023-07-28T14:27:14;99675.94;;;29.96;30.01
77939;BME280;67136;47.546;21.630;2023-07-28T14:30:17;99681.37;;;30.31;29.88
77939;BME280;67136;47.546;21.630;2023-07-28T14:33:19;99672.97;;;30.18;29.52
77939;BME280;67136;47.546;21.630;2023-07-28T14:36:22;99667.06;;;30.31;29.56
77939;BME280;67136;47.546;21.630;2023-07-28T14:39:24;99663.81;;;29.22;30.48
77939;BME280;67136;47.546;21.630;2023-07-28T14:42:27;99660.03;;;30.00;29.75
77939;BME280;67136;47.546;21.630;2023-07-28T14:45:30;99654.38;;;30.06;29.72
77939;BME280;67136;47.546;21.630;2023-07-28T14:48:33;99638.97;;;30.67;28.78
77939;BME280;67136;47.546;21.630;2023-07-28T14:51:37;99649.75;;;29.77;30.47
77939;BME280;67136;47.546;21.630;2023-07-28T14:54:40;99637.91;;;30.18;29.39
77939;BME280;67136;47.546;21.630;2023-07-28T14:57:43;99640.16;;;29.34;31.31
77939;BME280;67136;47.546;21.630;2023-07-28T15:00:45;99643.59;;;30.36;29.70
77939;BME280;67136;47.546;21.630;2023-07-28T15:03:48;99648.13;;;29.96;30.09
77939;BME280;67136;47.546;21.630;2023-07-28T15:06:50;99636.75;;;29.59;30.40
77939;BME280;67136;47.546;21.630;2023-07-28T15:09:53;99634.22;;;29.32;30.61
77939;BME280;67136;47.546;21.630;2023-07-28T15:12:56;99630.84;;;29.67;30.54
77939;BME280;67136;47.546;21.630;2023-07-28T15:15:58;99627.69;;;29.13;31.21
77939;BME280;67136;47.546;21.630;2023-07-28T15:19:01;99624.19;;;29.17;31.46
77939;BME280;67136;47.546;21.630;2023-07-28T15:22:04;99612.63;;;29.22;31.29
77939;BME280;67136;47.546;21.630;2023-07-28T15:25:07;99618.06;;;28.80;32.05
77939;BME280;67136;47.546;21.630;2023-07-28T15:28:10;99621.78;;;28.69;32.34
77939;BME280;67136;47.546;21.630;2023-07-28T15:31:13;99618.19;;;28.54;32.92
77939;BME280;67136;47.546;21.630;2023-07-28T15:34:16;99626.56;;;28.62;32.76
77939;BME280;67136;47.546;21.630;2023-07-28T15:37:19;99620.13;;;28.63;32.99
77939;BME280;67136;47.546;21.630;2023-07-28T15:40:21;99620.09;;;28.58;33.15
77939;BME280;67136;47.546;21.630;2023-07-28T15:43:24;99622.91;;;28.42;33.07
77939;BME280;67136;47.546;21.630;2023-07-28T15:46:27;99610.00;;;28.44;32.92
77939;BME280;67136;47.546;21.630;2023-07-28T15:49:30;99617.94;;;28.24;33.19
77939;BME280;67136;47.546;21.630;2023-07-28T15:52:32;99614.59;;;28.12;33.54
77939;BME280;67136;47.546;21.630;2023-07-28T15:55:35;99604.00;;;28.32;33.72
77939;BME280;67136;47.546;21.630;2023-07-28T15:58:38;99611.72;;;28.23;33.70
77939;BME280;67136;47.546;21.630;2023-07-28T16:01:41;99608.00;;;28.24;33.95
77939;BME280;67136;47.546;21.630;2023-07-28T16:04:43;99603.88;;;28.17;34.15
77939;BME280;67136;47.546;21.630;2023-07-28T16:07:46;99605.00;;;28.21;34.31
77939;BME280;67136;47.546;21.630;2023-07-28T16:10:49;99603.16;;;27.94;34.58